Time;durP1;ratioP1;P1;durP2;ratioP2;P2;SDS_P1;SDS_P2;PMS_P1;PMS_P2;Temp;Humidity;BMP_temperature;BMP_pressure;BME280_temperature;BME280_humidity;BME280_pressure;Samples;Min_cycle;Max_cycle;Signal;HPM_P1;HPM_P2
2021/01/30 00:01:26;;;;;;;16.55;9.93;;;;;;;;;;5055198;28;20544;-71
2021/01/30 00:03:52;;;;;;;15.40;10.48;;;;;;;;;;5062124;28;20264;-71
2021/01/30 00:06:18;;;;;;;15.98;9.90;;;;;;;;;;5068029;28;20624;-71
2021/01/30 00:08:44;;;;;;;16.38;10.77;;;;;;;;;;5058814;28;20673;-72
2021/01/30 00:11:12;;;;;;;16.40;10.75;;;;;;;;;;5046653;28;20553;-71
2021/01/30 00:13:38;;;;;;;14.15;9.73;;;;;;;;;;5054204;28;20219;-73
2021/01/30 00:16:05;;;;;;;15.23;9.73;;;;;;;;;;5047726;28;20185;-70
2021/01/30 00:18:31;;;;;;;12.88;8.63;;;;;;;;;;5048200;28;20288;-71
2021/01/30 00:20:57;;;;;;;13.38;9.30;;;;;;;;;;5067445;28;20250;-74
2021/01/30 00:23:23;;;;;;;14.82;10.10;;;;;;;;;;5061122;28;20187;-71
2021/01/30 00:25:49;;;;;;;17.15;10.88;;;;;;;;;;5062494;28;20185;-72
2021/01/30 00:28:15;;;;;;;16.20;10.15;;;;;;;;;;5048248;28;20268;-73
2021/01/30 00:30:41;;;;;;;16.48;11.13;;;;;;;;;;5068651;28;20259;-74
2021/01/30 00:33:08;;;;;;;17.15;10.35;;;;;;;;;;5064847;28;20221;-73
2021/01/30 00:35:34;;;;;;;18.52;11.35;;;;;;;;;;5069003;28;20172;-73
2021/01/30 00:38:01;;;;;;;17.98;10.98;;;;;;;;;;5066856;28;20172;-71
2021/01/30 00:40:27;;;;;;;16.15;10.85;;;;;;;;;;5068916;28;20204;-71
2021/01/30 00:42:53;;;;;;;19.55;10.95;;;;;;;;;;5054868;28;20200;-72
2021/01/30 00:45:21;;;;;;;17.08;11.15;;;;;;;;;;5068778;28;20184;-73
2021/01/30 00:47:47;;;;;;;15.98;10.18;;;;;;;;;;5056949;28;20185;-72
2021/01/30 00:50:14;;;;;;;16.83;9.77;;;;;;;;;;5034994;28;20304;-72
2021/01/30 00:52:42;;;;;;;17.67;11.43;;;;;;;;;;5049960;28;20193;-70
2021/01/30 00:55:09;;;;;;;17.25;11.65;;;;;;;;;;5051672;28;20533;-74
2021/01/30 00:57:35;;;;;;;17.95;10.23;;;;;;;;;;5047689;28;20506;-71
2021/01/30 01:00:01;;;;;;;18.13;11.70;;;;;;;;;;5056882;28;20597;-71
2021/01/30 01:02:27;;;;;;;16.98;10.70;;;;;;;;;;5050618;28;20196;-72
2021/01/30 01:04:53;;;;;;;15.90;9.93;;;;;;;;;;5051729;28;20184;-71
2021/01/30 01:07:19;;;;;;;15.63;10.35;;;;;;;;;;5061113;28;20710;-73
2021/01/30 01:09:45;;;;;;;15.48;10.23;;;;;;;;;;5052805;28;20327;-72
2021/01/30 01:12:11;;;;;;;15.32;10.50;;;;;;;;;;5051989;28;20208;-70
2021/01/30 01:14:37;;;;;;;16.73;11.05;;;;;;;;;;5051660;28;20188;-72
2021/01/30 01:17:03;;;;;;;14.43;9.70;;;;;;;;;;5056184;28;20201;-73
2021/01/30 01:19:29;;;;;;;17.45;10.35;;;;;;;;;;5058419;28;20526;-72
2021/01/30 01:21:55;;;;;;;15.55;9.75;;;;;;;;;;5066631;28;20192;-72
2021/01/30 01:24:22;;;;;;;14.77;10.77;;;;;;;;;;5071862;28;20234;-72
2021/01/30 01:26:49;;;;;;;15.90;10.63;;;;;;;;;;5055126;28;20197;-72
2021/01/30 01:29:16;;;;;;;16.05;10.00;;;;;;;;;;5061038;28;20608;-70
2021/01/30 01:31:42;;;;;;;14.85;10.23;;;;;;;;;;5065501;28;20223;-72
2021/01/30 01:34:08;;;;;;;18.23;10.68;;;;;;;;;;5071491;28;20628;-74
2021/01/30 01:36:34;;;;;;;14.35;9.30;;;;;;;;;;5058914;28;20541;-71
2021/01/30 01:39:01;;;;;;;14.48;9.52;;;;;;;;;;5071530;28;20911;-73
2021/01/30 01:41:27;;;;;;;16.33;10.55;;;;;;;;;;5060630;28;20622;-72
2021/01/30 01:43:53;;;;;;;15.48;9.48;;;;;;;;;;5071405;28;20180;-74
2021/01/30 01:46:22;;;;;;;15.52;10.63;;;;;;;;;;5061836;28;20189;-72
2021/01/30 01:49:10;;;;;;;21.33;10.70;;;;;;;;;;5069840;28;20204;-72
2021/01/30 01:51:39;;;;;;;16.13;10.80;;;;;;;;;;5055574;28;20205;-72
2021/01/30 01:54:07;;;;;;;19.48;11.30;;;;;;;;;;5050432;28;20177;-70
2021/01/30 01:56:35;;;;;;;13.75;9.00;;;;;;;;;;5069664;28;20651;-69
2021/01/30 01:59:15;;;;;;;15.90;10.05;;;;;;;;;;5060216;28;20201;-71
2021/01/30 02:01:41;;;;;;;15.43;10.52;;;;;;;;;;5038512;28;20189;-71
2021/01/30 02:04:12;;;;;;;15.93;10.80;;;;;;;;;;5047927;28;20272;-73
2021/01/30 02:06:39;;;;;;;15.60;9.98;;;;;;;;;;5051304;28;20175;-71
2021/01/30 02:09:07;;;;;;;17.48;11.23;;;;;;;;;;5056048;28;20212;-72
2021/01/30 02:11:33;;;;;;;18.50;11.02;;;;;;;;;;5049375;28;20672;-71
2021/01/30 02:14:00;;;;;;;16.00;9.25;;;;;;;;;;5049180;28;20585;-73
2021/01/30 02:16:29;;;;;;;18.38;11.35;;;;;;;;;;5052131;28;20290;-72
2021/01/30 02:19:13;;;;;;;16.48;10.70;;;;;;;;;;5051165;28;20189;-77
2021/01/30 02:21:55;;;;;;;15.65;10.32;;;;;;;;;;5066401;28;20222;-75
2021/01/30 02:24:24;;;;;;;16.05;11.00;;;;;;;;;;5065488;28;20676;-72
2021/01/30 02:27:00;;;;;;;16.25;10.63;;;;;;;;;;5059618;28;20199;-70
2021/01/30 02:29:45;;;;;;;15.18;10.68;;;;;;;;;;5052931;28;20245;-72
2021/01/30 02:32:26;;;;;;;16.40;10.18;;;;;;;;;;5054284;28;20197;-72
2021/01/30 02:34:58;;;;;;;16.85;11.15;;;;;;;;;;5053842;28;20194;-71
2021/01/30 02:37:26;;;;;;;16.65;11.10;;;;;;;;;;5054321;28;20181;-71
2021/01/30 02:39:54;;;;;;;18.45;11.65;;;;;;;;;;5069314;28;20284;-73
2021/01/30 02:42:29;;;;;;;17.08;10.82;;;;;;;;;;5074358;28;20653;-70
2021/01/30 02:44:58;;;;;;;17.05;10.23;;;;;;;;;;5069879;28;20188;-70
2021/01/30 02:47:25;;;;;;;15.52;10.70;;;;;;;;;;5054015;28;20634;-74
2021/01/30 02:50:07;;;;;;;16.00;9.82;;;;;;;;;;5071371;28;20196;-71
2021/01/30 02:52:33;;;;;;;15.80;10.70;;;;;;;;;;5072790;28;20249;-76
2021/01/30 02:55:00;;;;;;;14.73;9.73;;;;;;;;;;5073442;28;20173;-71
2021/01/30 02:57:27;;;;;;;16.58;10.95;;;;;;;;;;5073783;28;20176;-72
2021/01/30 02:59:54;;;;;;;18.35;10.55;;;;;;;;;;5072874;28;20563;-74
2021/01/30 03:02:24;;;;;;;15.95;10.73;;;;;;;;;;5073750;28;20195;-72
2021/01/30 03:04:53;;;;;;;19.83;11.85;;;;;;;;;;5059829;28;20170;-71
2021/01/30 03:07:34;;;;;;;17.88;10.70;;;;;;;;;;5054469;28;20195;-71
2021/01/30 03:10:09;;;;;;;17.17;10.60;;;;;;;;;;5063336;28;20191;-70
2021/01/30 03:12:51;;;;;;;19.05;11.85;;;;;;;;;;5051426;28;20208;-72
2021/01/30 03:15:22;;;;;;;18.48;11.65;;;;;;;;;;5051032;28;20188;-71
2021/01/30 03:17:49;;;;;;;18.10;12.27;;;;;;;;;;5058699;28;20189;-71
2021/01/30 03:20:15;;;;;;;15.18;11.13;;;;;;;;;;5053256;28;20266;-73
2021/01/30 03:22:42;;;;;;;16.30;12.23;;;;;;;;;;5060353;28;20180;-71
2021/01/30 03:25:08;;;;;;;23.02;12.82;;;;;;;;;;5072104;28;20263;-74
2021/01/30 03:27:35;;;;;;;19.98;12.25;;;;;;;;;;5053198;28;20173;-72
2021/01/30 03:30:02;;;;;;;20.02;13.00;;;;;;;;;;5053512;28;20254;-70
2021/01/30 03:32:29;;;;;;;19.83;13.70;;;;;;;;;;5052603;28;20205;-72
2021/01/30 03:35:00;;;;;;;19.00;11.60;;;;;;;;;;5047504;28;20605;-73
2021/01/30 03:37:26;;;;;;;17.80;11.48;;;;;;;;;;5053505;28;20176;-75
2021/01/30 03:39:52;;;;;;;21.60;13.98;;;;;;;;;;5068550;28;20199;-73
2021/01/30 03:42:18;;;;;;;23.77;13.55;;;;;;;;;;5073230;28;20177;-73
2021/01/30 03:44:44;;;;;;;21.95;13.93;;;;;;;;;;5072795;28;20187;-73
2021/01/30 03:47:10;;;;;;;22.95;13.13;;;;;;;;;;5060280;28;20177;-72
2021/01/30 03:49:36;;;;;;;19.30;12.63;;;;;;;;;;5052809;28;20287;-72
2021/01/30 03:52:03;;;;;;;18.15;12.40;;;;;;;;;;5053159;28;20304;-72
2021/01/30 03:54:29;;;;;;;16.30;11.20;;;;;;;;;;5043555;28;20177;-72
2021/01/30 03:56:55;;;;;;;17.48;12.02;;;;;;;;;;5064302;28;20176;-71
2021/01/30 03:59:21;;;;;;;20.05;12.57;;;;;;;;;;5062206;28;20616;-73
2021/01/30 04:01:48;;;;;;;21.13;13.70;;;;;;;;;;5055404;28;20246;-72
2021/01/30 04:04:14;;;;;;;18.00;12.02;;;;;;;;;;5046130;28;20178;-73
2021/01/30 04:06:40;;;;;;;18.35;11.57;;;;;;;;;;5042614;28;20176;-71
2021/01/30 04:09:07;;;;;;;19.02;12.93;;;;;;;;;;5053072;28;20292;-72
2021/01/30 04:11:33;;;;;;;21.67;13.07;;;;;;;;;;5055182;28;20180;-70
2021/01/30 04:14:00;;;;;;;19.42;12.80;;;;;;;;;;5066050;28;20177;-71
2021/01/30 04:16:27;;;;;;;21.85;13.85;;;;;;;;;;5054831;28;20592;-71
2021/01/30 04:18:53;;;;;;;22.05;13.73;;;;;;;;;;5050129;28;20196;-71
2021/01/30 04:21:19;;;;;;;20.67;14.20;;;;;;;;;;5052697;28;20192;-74
2021/01/30 04:23:46;;;;;;;25.05;14.27;;;;;;;;;;5051721;28;20185;-73
2021/01/30 04:26:12;;;;;;;23.15;15.35;;;;;;;;;;5051466;28;20514;-72
2021/01/30 04:28:38;;;;;;;23.40;15.05;;;;;;;;;;5053218;28;20196;-75
2021/01/30 04:31:04;;;;;;;22.80;14.80;;;;;;;;;;5055875;28;20219;-75
2021/01/30 04:33:30;;;;;;;21.13;14.70;;;;;;;;;;5056237;28;20208;-72
2021/01/30 04:35:57;;;;;;;26.02;16.02;;;;;;;;;;5055926;28;20256;-74
2021/01/30 04:38:23;;;;;;;25.73;16.10;;;;;;;;;;5056520;28;20255;-72
2021/01/30 04:40:52;;;;;;;29.83;17.25;;;;;;;;;;5054366;28;20173;-73
2021/01/30 04:43:32;;;;;;;28.23;16.08;;;;;;;;;;5050368;28;20611;-72
2021/01/30 04:46:04;;;;;;;24.80;15.27;;;;;;;;;;5055863;28;20177;-72
2021/01/30 04:48:45;;;;;;;26.63;17.23;;;;;;;;;;5047032;28;20581;-72
2021/01/30 04:51:20;;;;;;;26.85;16.02;;;;;;;;;;5071766;28;20631;-72
2021/01/30 04:54:05;;;;;;;26.67;16.52;;;;;;;;;;5075910;28;20547;-74
2021/01/30 04:56:31;;;;;;;23.80;15.90;;;;;;;;;;5051702;28;20615;-73
2021/01/30 04:59:03;;;;;;;25.83;15.45;;;;;;;;;;5065512;28;20257;-71
2021/01/30 05:01:29;;;;;;;29.45;16.27;;;;;;;;;;5067265;28;20583;-73
2021/01/30 05:04:01;;;;;;;28.08;18.52;;;;;;;;;;5075764;28;20525;-71
2021/01/30 05:07:02;;;;;;;28.42;16.08;;;;;;;;;;5068819;28;20251;-73
2021/01/30 05:09:34;;;;;;;27.55;15.52;;;;;;;;;;4993285;28;20330;-72
2021/01/30 05:12:03;;;;;;;29.45;16.20;;;;;;;;;;5045109;28;20213;-72
2021/01/30 05:14:32;;;;;;;27.25;16.20;;;;;;;;;;5056038;28;20180;-70
2021/01/30 05:17:22;;;;;;;28.60;16.70;;;;;;;;;;5057090;28;20248;-71
2021/01/30 05:19:51;;;;;;;29.85;16.85;;;;;;;;;;5053926;28;20221;-74
2021/01/30 05:22:18;;;;;;;29.13;16.60;;;;;;;;;;5056548;28;20231;-72
2021/01/30 05:24:44;;;;;;;30.98;16.70;;;;;;;;;;5051425;28;20181;-74
2021/01/30 05:27:10;;;;;;;26.33;16.52;;;;;;;;;;5053842;28;20539;-73
2021/01/30 05:29:42;;;;;;;24.30;15.13;;;;;;;;;;5046786;28;20248;-71
2021/01/30 05:32:11;;;;;;;24.25;14.30;;;;;;;;;;5066291;28;20205;-75
2021/01/30 05:34:42;;;;;;;30.33;16.60;;;;;;;;;;5058247;28;21799;-72
2021/01/30 05:37:12;;;;;;;24.83;15.65;;;;;;;;;;5060365;28;20536;-72
2021/01/30 05:39:57;;;;;;;27.35;15.82;;;;;;;;;;5070886;28;20244;-71
2021/01/30 05:42:29;;;;;;;25.80;15.05;;;;;;;;;;5062558;28;20619;-74
2021/01/30 05:44:59;;;;;;;24.58;15.15;;;;;;;;;;5051651;28;20178;-75
2021/01/30 05:47:28;;;;;;;27.30;14.70;;;;;;;;;;5046052;28;20184;-72
2021/01/30 05:50:00;;;;;;;25.08;15.30;;;;;;;;;;5055257;28;20197;-70
2021/01/30 05:52:31;;;;;;;27.30;15.02;;;;;;;;;;5055102;28;20287;-72
2021/01/30 05:54:58;;;;;;;23.40;13.23;;;;;;;;;;5052671;28;20184;-74
2021/01/30 05:57:24;;;;;;;23.95;14.52;;;;;;;;;;5054876;28;20188;-71
2021/01/30 05:59:57;;;;;;;23.77;15.00;;;;;;;;;;5054164;28;20189;-74
2021/01/30 06:02:25;;;;;;;20.25;14.05;;;;;;;;;;5052132;28;20538;-72
2021/01/30 06:04:51;;;;;;;21.08;12.77;;;;;;;;;;5071186;28;20173;-72
2021/01/30 06:07:26;;;;;;;22.13;13.35;;;;;;;;;;5071884;28;20208;-72
2021/01/30 06:09:53;;;;;;;22.67;14.10;;;;;;;;;;5066091;28;20192;-73
2021/01/30 06:12:29;;;;;;;22.92;13.25;;;;;;;;;;5071497;28;20201;-73
2021/01/30 06:14:57;;;;;;;22.92;13.65;;;;;;;;;;5069318;28;20171;-73
2021/01/30 06:17:26;;;;;;;22.63;14.23;;;;;;;;;;5053094;28;20600;-72
2021/01/30 06:20:10;;;;;;;21.05;13.15;;;;;;;;;;5050667;28;20208;-74
2021/01/30 06:22:36;;;;;;;20.63;13.60;;;;;;;;;;5041867;28;20173;-72
2021/01/30 06:25:21;;;;;;;23.00;14.00;;;;;;;;;;5049072;28;20178;-71
2021/01/30 06:27:48;;;;;;;24.00;13.98;;;;;;;;;;5043393;28;20169;-74
2021/01/30 06:30:26;;;;;;;20.10;12.95;;;;;;;;;;5054098;28;20201;-72
2021/01/30 06:32:56;;;;;;;18.48;12.32;;;;;;;;;;5065339;28;20207;-74
2021/01/30 06:35:27;;;;;;;20.15;12.52;;;;;;;;;;5069168;28;20212;-72
2021/01/30 06:37:55;;;;;;;18.85;12.98;;;;;;;;;;5046705;28;20176;-73
2021/01/30 06:40:31;;;;;;;22.40;12.82;;;;;;;;;;5060371;28;20207;-73
2021/01/30 06:43:06;;;;;;;18.80;12.25;;;;;;;;;;5072280;28;20260;-72
2021/01/30 06:45:34;;;;;;;20.45;12.63;;;;;;;;;;5043603;28;20233;-70
2021/01/30 06:48:00;;;;;;;17.08;11.60;;;;;;;;;;5046983;28;20205;-73
2021/01/30 06:50:37;;;;;;;20.48;12.57;;;;;;;;;;5043241;28;20178;-74
2021/01/30 06:53:17;;;;;;;19.20;11.57;;;;;;;;;;5052823;28;20208;-73
2021/01/30 06:55:43;;;;;;;21.42;13.52;;;;;;;;;;5054050;28;20180;-73
2021/01/30 06:58:12;;;;;;;21.33;12.05;;;;;;;;;;5053229;28;20222;-72
2021/01/30 07:00:38;;;;;;;21.13;11.55;;;;;;;;;;5053197;28;20161;-74
2021/01/30 07:03:25;;;;;;;21.83;11.82;;;;;;;;;;5052910;28;20205;-73
2021/01/30 07:05:57;;;;;;;19.17;11.77;;;;;;;;;;5023231;28;20534;-71
2021/01/30 07:08:41;;;;;;;18.27;11.82;;;;;;;;;;5059804;28;20261;-74
2021/01/30 07:11:10;;;;;;;17.73;11.60;;;;;;;;;;5052637;28;20215;-73
2021/01/30 07:13:53;;;;;;;20.15;12.60;;;;;;;;;;5051329;28;20243;-72
2021/01/30 07:16:22;;;;;;;22.60;13.10;;;;;;;;;;5052747;28;20192;-73
2021/01/30 07:18:55;;;;;;;23.40;13.75;;;;;;;;;;5055924;28;20730;-74
2021/01/30 07:21:22;;;;;;;23.77;12.27;;;;;;;;;;5066160;28;20185;-71
2021/01/30 07:23:54;;;;;;;18.63;11.27;;;;;;;;;;5043914;28;20527;-71
2021/01/30 07:26:32;;;;;;;19.02;12.00;;;;;;;;;;5054157;28;20204;-72
2021/01/30 07:29:01;;;;;;;22.05;12.68;;;;;;;;;;5068042;28;20766;-75
2021/01/30 07:31:32;;;;;;;16.15;10.63;;;;;;;;;;5046627;28;20193;-71
2021/01/30 07:34:20;;;;;;;19.52;11.70;;;;;;;;;;5046339;28;20169;-72
2021/01/30 07:37:05;;;;;;;17.45;11.32;;;;;;;;;;5048114;28;20686;-73
2021/01/30 07:39:31;;;;;;;17.77;11.05;;;;;;;;;;5046354;28;20201;-73
2021/01/30 07:42:00;;;;;;;16.20;11.27;;;;;;;;;;5053173;28;20184;-74
2021/01/30 07:44:33;;;;;;;18.65;12.13;;;;;;;;;;5052045;28;20185;-72
2021/01/30 07:47:14;;;;;;;17.05;11.75;;;;;;;;;;5046006;28;20184;-69
2021/01/30 07:49:42;;;;;;;39.33;22.35;;;;;;;;;;5049185;28;20192;-73
2021/01/30 07:52:10;;;;;;;34.25;19.33;;;;;;;;;;5052418;28;20660;-73
2021/01/30 07:54:45;;;;;;;31.15;14.18;;;;;;;;;;5052817;28;20187;-72
2021/01/30 07:57:11;;;;;;;21.95;11.35;;;;;;;;;;5050770;28;20175;-73
2021/01/30 07:59:57;;;;;;;17.52;10.80;;;;;;;;;;5064229;28;20207;-74
2021/01/30 08:02:45;;;;;;;21.17;13.23;;;;;;;;;;5055138;28;20176;-71
2021/01/30 08:05:11;;;;;;;21.20;11.40;;;;;;;;;;5066062;28;20181;-73
2021/01/30 08:07:37;;;;;;;16.13;11.30;;;;;;;;;;5054760;28;20183;-73
2021/01/30 08:10:10;;;;;;;18.10;10.60;;;;;;;;;;5056987;28;20681;-71
2021/01/30 08:12:48;;;;;;;16.15;10.13;;;;;;;;;;5061454;28;20376;-75
2021/01/30 08:15:22;;;;;;;17.25;11.57;;;;;;;;;;5064399;28;20176;-72
2021/01/30 08:17:48;;;;;;;17.75;11.45;;;;;;;;;;5049474;28;20176;-72
2021/01/30 08:20:20;;;;;;;15.90;10.50;;;;;;;;;;5067364;28;20277;-74
2021/01/30 08:23:06;;;;;;;16.73;10.60;;;;;;;;;;5056748;28;20204;-73
2021/01/30 08:25:44;;;;;;;15.50;10.93;;;;;;;;;;5056826;28;20181;-76
2021/01/30 08:28:14;;;;;;;16.83;11.05;;;;;;;;;;5056365;28;20171;-74
2021/01/30 08:30:41;;;;;;;14.60;10.45;;;;;;;;;;5046513;28;20186;-73
2021/01/30 08:33:08;;;;;;;18.33;11.27;;;;;;;;;;5052821;28;20270;-74
2021/01/30 08:35:40;;;;;;;18.33;10.98;;;;;;;;;;5062065;28;20180;-73
2021/01/30 08:38:18;;;;;;;20.60;11.20;;;;;;;;;;5062453;28;20198;-72
2021/01/30 08:40:44;;;;;;;16.30;10.65;;;;;;;;;;5055572;28;20176;-72
2021/01/30 08:43:12;;;;;;;17.13;11.10;;;;;;;;;;5069401;28;20184;-71
2021/01/30 08:45:38;;;;;;;18.35;12.20;;;;;;;;;;5058110;28;20415;-72
2021/01/30 08:48:07;;;;;;;16.00;10.85;;;;;;;;;;5073108;28;20198;-71
2021/01/30 08:50:44;;;;;;;18.15;11.38;;;;;;;;;;5047311;28;20177;-74
2021/01/30 08:53:15;;;;;;;16.98;11.07;;;;;;;;;;5054319;28;20196;-76
2021/01/30 08:55:44;;;;;;;18.45;12.43;;;;;;;;;;5069172;28;20513;-74
2021/01/30 08:58:29;;;;;;;15.10;10.80;;;;;;;;;;5077213;28;20179;-71
2021/01/30 09:00:56;;;;;;;17.45;11.07;;;;;;;;;;5057149;28;20178;-73
2021/01/30 09:03:48;;;;;;;14.65;10.55;;;;;;;;;;5056084;28;20166;-75
2021/01/30 09:06:33;;;;;;;15.35;10.60;;;;;;;;;;5055099;28;20211;-74
2021/01/30 09:09:08;;;;;;;15.40;11.23;;;;;;;;;;5064527;28;20220;-74
2021/01/30 09:11:36;;;;;;;15.73;10.55;;;;;;;;;;5046344;28;20173;-71
2021/01/30 09:14:25;;;;;;;18.30;10.90;;;;;;;;;;5055019;28;20173;-72
2021/01/30 09:16:57;;;;;;;15.43;10.80;;;;;;;;;;5046964;28;20683;-73
2021/01/30 09:19:35;;;;;;;13.98;9.93;;;;;;;;;;5055800;28;20201;-72
2021/01/30 09:22:20;;;;;;;16.08;9.73;;;;;;;;;;5056229;28;20177;-76
2021/01/30 09:24:49;;;;;;;13.80;8.82;;;;;;;;;;5055246;28;20181;-74
2021/01/30 09:27:19;;;;;;;13.73;10.30;;;;;;;;;;5056645;28;20196;-72
2021/01/30 09:29:46;;;;;;;12.23;9.57;;;;;;;;;;5056102;28;20201;-73
2021/01/30 09:32:13;;;;;;;12.02;9.68;;;;;;;;;;5058680;28;20203;-75
2021/01/30 09:34:50;;;;;;;13.10;9.65;;;;;;;;;;5052702;28;20183;-75
2021/01/30 09:37:31;;;;;;;13.02;9.30;;;;;;;;;;5042893;28;20222;-75
2021/01/30 09:39:57;;;;;;;12.45;9.52;;;;;;;;;;5065186;28;20200;-73
2021/01/30 09:42:24;;;;;;;12.48;9.77;;;;;;;;;;5064695;28;20507;-73
2021/01/30 09:45:10;;;;;;;11.32;8.60;;;;;;;;;;5055205;28;20279;-72
2021/01/30 09:47:36;;;;;;;12.20;9.02;;;;;;;;;;5055474;28;20173;-74
2021/01/30 09:50:05;;;;;;;12.25;9.45;;;;;;;;;;5052043;28;20559;-72
2021/01/30 09:52:31;;;;;;;11.80;9.15;;;;;;;;;;5054247;28;20207;-73
2021/01/30 09:55:02;;;;;;;11.60;9.10;;;;;;;;;;5054758;28;20177;-71
2021/01/30 09:57:28;;;;;;;11.23;9.57;;;;;;;;;;5054973;28;20174;-71
2021/01/30 09:59:59;;;;;;;9.80;8.80;;;;;;;;;;5055044;28;20602;-73
2021/01/30 10:02:27;;;;;;;11.70;9.25;;;;;;;;;;5054670;28;20695;-73
2021/01/30 10:05:08;;;;;;;13.40;8.43;;;;;;;;;;5054245;28;20181;-72
2021/01/30 10:07:34;;;;;;;9.18;8.15;;;;;;;;;;5057409;28;20177;-74
2021/01/30 10:10:01;;;;;;;11.25;8.80;;;;;;;;;;5074655;28;20220;-74
2021/01/30 10:12:27;;;;;;;8.82;7.93;;;;;;;;;;5074732;28;20196;-73
2021/01/30 10:14:55;;;;;;;9.95;8.10;;;;;;;;;;5070805;28;20172;-72
2021/01/30 10:17:44;;;;;;;11.55;10.35;;;;;;;;;;5054884;28;20583;-72
2021/01/30 10:20:12;;;;;;;17.45;13.27;;;;;;;;;;5054369;28;20209;-75
2021/01/30 10:22:40;;;;;;;11.27;10.00;;;;;;;;;;5054605;28;20181;-74
2021/01/30 10:25:09;;;;;;;12.50;11.20;;;;;;;;;;5053292;28;20625;-74
2021/01/30 10:27:35;;;;;;;10.00;9.00;;;;;;;;;;5054350;28;20184;-72
2021/01/30 10:30:02;;;;;;;10.93;9.68;;;;;;;;;;5068294;28;20286;-72
2021/01/30 10:32:34;;;;;;;8.15;7.35;;;;;;;;;;5074223;28;20192;-73
2021/01/30 10:35:02;;;;;;;10.30;9.07;;;;;;;;;;5073584;28;20195;-73
2021/01/30 10:37:48;;;;;;;8.80;7.90;;;;;;;;;;5074327;28;20633;-75
2021/01/30 10:40:15;;;;;;;10.85;8.90;;;;;;;;;;5056014;28;20533;-75
2021/01/30 10:42:41;;;;;;;9.60;8.60;;;;;;;;;;5054406;28;20510;-73
2021/01/30 10:45:11;;;;;;;9.52;8.15;;;;;;;;;;5053399;28;20177;-74
2021/01/30 10:47:37;;;;;;;9.80;8.07;;;;;;;;;;5054125;28;20552;-71
2021/01/30 10:50:09;;;;;;;8.32;7.35;;;;;;;;;;5054153;28;20553;-75
2021/01/30 10:52:35;;;;;;;8.10;7.38;;;;;;;;;;5054344;28;20192;-74
2021/01/30 10:55:20;;;;;;;8.05;7.25;;;;;;;;;;5053646;28;20173;-72
2021/01/30 10:57:46;;;;;;;10.15;8.93;;;;;;;;;;5054143;28;20252;-73
2021/01/30 11:00:26;;;;;;;8.90;7.88;;;;;;;;;;5053837;28;20292;-72
2021/01/30 11:02:52;;;;;;;9.32;7.90;;;;;;;;;;5053354;28;20168;-74
2021/01/30 11:05:18;;;;;;;9.10;8.25;;;;;;;;;;5053732;28;20184;-74
2021/01/30 11:07:46;;;;;;;11.90;9.52;;;;;;;;;;5056869;28;20636;-76
2021/01/30 11:10:24;;;;;;;15.10;10.18;;;;;;;;;;5073713;28;20196;-74
2021/01/30 11:12:51;;;;;;;9.80;8.50;;;;;;;;;;5072957;28;20195;-74
2021/01/30 11:15:20;;;;;;;13.02;10.52;;;;;;;;;;5066441;28;20283;-75
2021/01/30 11:17:46;;;;;;;11.88;9.05;;;;;;;;;;5053417;28;20176;-76
2021/01/30 11:20:12;;;;;;;8.77;7.88;;;;;;;;;;5065331;28;20204;-74
2021/01/30 11:22:38;;;;;;;10.10;9.02;;;;;;;;;;5073519;28;20241;-76
2021/01/30 11:25:14;;;;;;;11.30;10.10;;;;;;;;;;5072768;28;20183;-76
2021/01/30 11:27:45;;;;;;;11.20;8.90;;;;;;;;;;5053508;28;20642;-75
2021/01/30 11:30:13;;;;;;;16.95;14.75;;;;;;;;;;5069831;28;20707;-72
2021/01/30 11:32:40;;;;;;;13.32;11.30;;;;;;;;;;5075235;28;20207;-72
2021/01/30 11:35:06;;;;;;;14.65;13.13;;;;;;;;;;5073109;28;20168;-72
2021/01/30 11:37:33;;;;;;;12.07;10.63;;;;;;;;;;5073391;28;20176;-72
2021/01/30 11:40:06;;;;;;;19.88;16.52;;;;;;;;;;5057294;28;20225;-73
2021/01/30 11:42:32;;;;;;;13.13;11.73;;;;;;;;;;5053373;28;20195;-71
2021/01/30 11:44:58;;;;;;;8.18;7.32;;;;;;;;;;5052522;28;20184;-71
2021/01/30 11:47:24;;;;;;;30.10;25.77;;;;;;;;;;5053037;28;20192;-75
2021/01/30 11:49:50;;;;;;;10.00;9.00;;;;;;;;;;5052909;28;20196;-72
2021/01/30 11:52:17;;;;;;;8.65;7.63;;;;;;;;;;5053234;28;20204;-72
2021/01/30 11:54:43;;;;;;;8.63;7.78;;;;;;;;;;5052609;28;20256;-76
2021/01/30 11:57:10;;;;;;;9.55;8.65;;;;;;;;;;5052989;28;20173;-73
2021/01/30 11:59:36;;;;;;;19.10;17.10;;;;;;;;;;5051536;28;20288;-72
2021/01/30 12:02:02;;;;;;;12.48;11.27;;;;;;;;;;5053155;28;20264;-75
2021/01/30 12:04:28;;;;;;;9.13;8.32;;;;;;;;;;5052666;28;20177;-73
2021/01/30 12:06:54;;;;;;;9.73;8.83;;;;;;;;;;5053080;28;20507;-75
2021/01/30 12:09:20;;;;;;;8.80;8.07;;;;;;;;;;5066352;28;20477;-72
2021/01/30 12:11:46;;;;;;;13.03;11.70;;;;;;;;;;5051061;28;20603;-72
2021/01/30 12:14:12;;;;;;;12.57;11.47;;;;;;;;;;5052225;28;20419;-74
2021/01/30 12:16:38;;;;;;;17.13;15.45;;;;;;;;;;5057351;28;20442;-71
2021/01/30 12:19:04;;;;;;;7.30;6.70;;;;;;;;;;5056138;28;20612;-72
2021/01/30 12:21:30;;;;;;;10.90;9.90;;;;;;;;;;5072782;28;20518;-73
2021/01/30 12:23:56;;;;;;;14.53;13.13;;;;;;;;;;5072581;28;20423;-73
2021/01/30 12:26:23;;;;;;;11.27;9.60;;;;;;;;;;5062139;28;20469;-70
2021/01/30 12:28:49;;;;;;;9.80;8.90;;;;;;;;;;5052729;28;20530;-72
2021/01/30 12:31:15;;;;;;;8.93;8.02;;;;;;;;;;5052803;28;20169;-71
2021/01/30 12:33:41;;;;;;;9.20;8.30;;;;;;;;;;5052229;28;20669;-73
2021/01/30 12:36:08;;;;;;;14.93;13.40;;;;;;;;;;5052702;28;20177;-72
2021/01/30 12:38:34;;;;;;;6.78;6.07;;;;;;;;;;5057033;28;20192;-73
2021/01/30 12:41:01;;;;;;;8.15;7.20;;;;;;;;;;5072845;28;20180;-72
2021/01/30 12:43:28;;;;;;;7.00;6.30;;;;;;;;;;5072228;28;20636;-73
2021/01/30 12:45:54;;;;;;;8.95;7.40;;;;;;;;;;5072451;28;20229;-71
2021/01/30 12:48:20;;;;;;;7.05;6.45;;;;;;;;;;5073044;28;20544;-70
2021/01/30 12:50:46;;;;;;;6.72;6.13;;;;;;;;;;5065234;28;20177;-75
2021/01/30 12:53:12;;;;;;;5.90;5.40;;;;;;;;;;5055651;28;20530;-74
2021/01/30 12:55:41;;;;;;;6.85;6.25;;;;;;;;;;5056549;28;20188;-73
2021/01/30 12:58:14;;;;;;;8.48;7.65;;;;;;;;;;5055854;28;20583;-73
2021/01/30 13:00:40;;;;;;;13.35;11.95;;;;;;;;;;5056162;28;20177;-74
2021/01/30 13:03:06;;;;;;;10.10;9.10;;;;;;;;;;5055730;28;20236;-72
2021/01/30 13:05:32;;;;;;;10.05;9.18;;;;;;;;;;5056111;28;20515;-75
2021/01/30 13:07:58;;;;;;;7.25;6.65;;;;;;;;;;5061661;28;20172;-74
2021/01/30 13:10:25;;;;;;;7.50;6.80;;;;;;;;;;5076001;28;20245;-73
2021/01/30 13:12:51;;;;;;;7.43;6.70;;;;;;;;;;5075285;28;20728;-68
2021/01/30 13:15:17;;;;;;;7.93;7.22;;;;;;;;;;5069526;28;20513;-71
2021/01/30 13:17:43;;;;;;;8.68;7.50;;;;;;;;;;5055675;28;20557;-71
2021/01/30 13:20:09;;;;;;;11.18;10.07;;;;;;;;;;5054704;28;20589;-73
2021/01/30 13:22:35;;;;;;;8.05;7.35;;;;;;;;;;5055620;28;20201;-75
2021/01/30 13:25:02;;;;;;;9.13;8.23;;;;;;;;;;5065712;28;20183;-74
2021/01/30 13:27:28;;;;;;;8.13;7.32;;;;;;;;;;5050183;28;20227;-73
2021/01/30 13:29:54;;;;;;;7.88;7.18;;;;;;;;;;5059368;28;20208;-71
2021/01/30 13:32:20;;;;;;;7.78;6.75;;;;;;;;;;5053438;28;20193;-75
2021/01/30 13:34:46;;;;;;;9.48;8.48;;;;;;;;;;5048731;28;20182;-73
2021/01/30 13:37:12;;;;;;;8.52;7.68;;;;;;;;;;5058490;28;20176;-73
2021/01/30 13:39:38;;;;;;;8.40;7.47;;;;;;;;;;5056162;28;20738;-74
2021/01/30 13:42:04;;;;;;;8.07;7.28;;;;;;;;;;5055771;28;20177;-73
2021/01/30 13:44:31;;;;;;;7.72;6.93;;;;;;;;;;5055047;28;20173;-74
2021/01/30 13:46:58;;;;;;;8.82;7.72;;;;;;;;;;5055483;28;20238;-73
2021/01/30 13:49:24;;;;;;;8.95;7.72;;;;;;;;;;5054788;28;20251;-72
2021/01/30 13:51:50;;;;;;;8.00;7.20;;;;;;;;;;5054633;28;20181;-71
2021/01/30 13:54:16;;;;;;;12.38;7.95;;;;;;;;;;5060064;28;20180;-74
2021/01/30 13:56:42;;;;;;;8.35;7.10;;;;;;;;;;5055363;28;20530;-72
2021/01/30 13:59:09;;;;;;;8.90;7.68;;;;;;;;;;5054894;28;20201;-74
2021/01/30 14:01:39;;;;;;;8.60;7.20;;;;;;;;;;5040758;28;20177;-72
2021/01/30 14:04:05;;;;;;;8.05;7.25;;;;;;;;;;5054808;28;20192;-75
2021/01/30 14:06:31;;;;;;;8.10;6.45;;;;;;;;;;5053592;28;20173;-75
2021/01/30 14:08:57;;;;;;;9.15;8.25;;;;;;;;;;5068420;28;20199;-74
2021/01/30 14:11:23;;;;;;;8.90;8.00;;;;;;;;;;5062579;28;20260;-75
2021/01/30 14:13:49;;;;;;;10.05;8.77;;;;;;;;;;5054250;28;20230;-72
2021/01/30 14:16:15;;;;;;;8.35;7.55;;;;;;;;;;5052965;28;20533;-74
2021/01/30 14:18:41;;;;;;;7.10;6.40;;;;;;;;;;5049669;28;20197;-74
2021/01/30 14:21:07;;;;;;;8.57;7.70;;;;;;;;;;5050713;28;20188;-73
2021/01/30 14:23:33;;;;;;;8.05;7.35;;;;;;;;;;5048807;28;20196;-72
2021/01/30 14:25:59;;;;;;;8.50;7.80;;;;;;;;;;5050827;28;20178;-75
2021/01/30 14:28:25;;;;;;;9.75;8.80;;;;;;;;;;5050084;28;20196;-74
2021/01/30 14:30:52;;;;;;;11.13;10.13;;;;;;;;;;5050555;28;20185;-72
2021/01/30 14:33:18;;;;;;;8.75;7.95;;;;;;;;;;5037245;28;20197;-75
2021/01/30 14:35:44;;;;;;;8.27;7.47;;;;;;;;;;5050439;28;20200;-75
2021/01/30 14:38:11;;;;;;;8.25;7.50;;;;;;;;;;5049180;28;20230;-74